sensor_id;sensor_type;location;lat;lon;timestamp;pressure;altitude;pressure_sealevel;temperature;humidity
65553;BME280;52465;51.560;14.368;2023-02-01T00:02:17;99895.38;;;6.71;68.20
65553;BME280;52465;51.560;14.368;2023-02-01T00:04:43;99893.03;;;6.68;67.49
65553;BME280;52465;51.560;14.368;2023-02-01T00:07:08;99889.09;;;6.63;68.24
65553;BME280;52465;51.560;14.368;2023-02-01T00:09:34;99903.03;;;6.72;67.62
65553;BME280;52465;51.560;14.368;2023-02-01T00:11:59;99905.50;;;6.74;68.35
65553;BME280;52465;51.560;14.368;2023-02-01T00:14:27;99895.63;;;6.68;67.29
65553;BME280;52465;51.560;14.368;2023-02-01T00:16:53;99897.00;;;6.72;67.59
65553;BME280;52465;51.560;14.368;2023-02-01T00:19:19;99892.63;;;6.72;67.50
65553;BME280;52465;51.560;14.368;2023-02-01T00:21:44;99895.22;;;6.72;67.83
65553;BME280;52465;51.560;14.368;2023-02-01T00:24:11;99881.84;;;6.57;68.36
65553;BME280;52465;51.560;14.368;2023-02-01T00:26:39;99903.84;;;6.73;67.56
65553;BME280;52465;51.560;14.368;2023-02-01T00:29:09;99868.84;;;6.57;67.82
65553;BME280;52465;51.560;14.368;2023-02-01T00:31:35;99891.28;;;6.68;67.49
65553;BME280;52465;51.560;14.368;2023-02-01T00:34:01;99887.47;;;6.62;67.74
65553;BME280;52465;51.560;14.368;2023-02-01T00:36:26;99869.94;;;6.55;67.34
65553;BME280;52465;51.560;14.368;2023-02-01T00:38:53;99902.22;;;6.72;67.41
65553;BME280;52465;51.560;14.368;2023-02-01T00:41:20;99888.78;;;6.67;67.45
65553;BME280;52465;51.560;14.368;2023-02-01T00:43:46;99892.78;;;6.71;68.04
65553;BME280;52465;51.560;14.368;2023-02-01T00:46:14;99895.38;;;6.71;67.23
65553;BME280;52465;51.560;14.368;2023-02-01T00:48:41;99891.94;;;6.70;67.76
65553;BME280;52465;51.560;14.368;2023-02-01T00:51:13;99890.59;;;6.66;68.21
65553;BME280;52465;51.560;14.368;2023-02-01T00:53:41;99881.72;;;6.59;67.28
65553;BME280;52465;51.560;14.368;2023-02-01T00:56:10;99868.56;;;6.60;67.42
65553;BME280;52465;51.560;14.368;2023-02-01T00:58:36;99868.72;;;6.49;67.97
65553;BME280;52465;51.560;14.368;2023-02-01T01:01:10;99894.69;;;6.69;67.62
65553;BME280;52465;51.560;14.368;2023-02-01T01:03:38;99880.19;;;6.56;68.21
65553;BME280;52465;51.560;14.368;2023-02-01T01:06:07;99893.34;;;6.65;67.21
65553;BME280;52465;51.560;14.368;2023-02-01T01:08:33;99884.31;;;6.59;67.38
65553;BME280;52465;51.560;14.368;2023-02-01T01:11:12;99835.09;;;6.28;68.02
65553;BME280;52465;51.560;14.368;2023-02-01T01:13:41;99896.47;;;6.68;67.64
65553;BME280;52465;51.560;14.368;2023-02-01T01:16:08;99898.13;;;6.69;67.90
65553;BME280;52465;51.560;14.368;2023-02-01T01:18:34;99902.34;;;6.70;67.76
65553;BME280;52465;51.560;14.368;2023-02-01T01:21:00;99878.81;;;6.62;67.56
65553;BME280;52465;51.560;14.368;2023-02-01T01:23:26;99874.56;;;6.61;67.35
65553;BME280;52465;51.560;14.368;2023-02-01T01:25:52;99859.94;;;6.50;67.59
65553;BME280;52465;51.560;14.368;2023-02-01T01:28:20;99892.09;;;6.69;67.75
65553;BME280;52465;51.560;14.368;2023-02-01T01:30:45;99883.19;;;6.61;67.66
65553;BME280;52465;51.560;14.368;2023-02-01T01:33:11;99884.28;;;6.69;67.14
65553;BME280;52465;51.560;14.368;2023-02-01T01:35:36;99883.31;;;6.70;67.59
65553;BME280;52465;51.560;14.368;2023-02-01T01:38:02;99871.00;;;6.62;67.49
65553;BME280;52465;51.560;14.368;2023-02-01T01:40:29;99859.28;;;6.48;67.77
65553;BME280;52465;51.560;14.368;2023-02-01T01:42:55;99861.44;;;6.62;67.62
65553;BME280;52465;51.560;14.368;2023-02-01T01:47:53;99876.09;;;6.63;67.76
65553;BME280;52465;51.560;14.368;2023-02-01T01:50:24;99877.44;;;6.68;67.73
65553;BME280;52465;51.560;14.368;2023-02-01T01:53:00;99899.09;;;6.68;67.83
65553;BME280;52465;51.560;14.368;2023-02-01T01:55:32;99890.31;;;6.69;67.83
65553;BME280;52465;51.560;14.368;2023-02-01T01:58:08;99868.84;;;6.57;67.54
65553;BME280;52465;51.560;14.368;2023-02-01T02:00:34;99876.50;;;6.69;67.44
65553;BME280;52465;51.560;14.368;2023-02-01T02:03:05;99868.69;;;6.59;67.38
65553;BME280;52465;51.560;14.368;2023-02-01T02:06:00;99879.91;;;6.69;67.98
65553;BME280;52465;51.560;14.368;2023-02-01T02:08:27;99854.19;;;6.56;67.87
65553;BME280;52465;51.560;14.368;2023-02-01T02:10:53;99867.06;;;6.58;67.99
65553;BME280;52465;51.560;14.368;2023-02-01T02:13:26;99860.22;;;6.57;67.09
65553;BME280;52465;51.560;14.368;2023-02-01T02:18:34;99859.78;;;6.61;67.17
65553;BME280;52465;51.560;14.368;2023-02-01T02:21:44;99868.00;;;6.67;67.56
65553;BME280;52465;51.560;14.368;2023-02-01T02:30:09;99868.81;;;6.67;67.44
65553;BME280;52465;51.560;14.368;2023-02-01T02:40:37;99876.59;;;6.67;67.59
65553;BME280;52465;51.560;14.368;2023-02-01T02:43:13;99873.59;;;6.62;67.06
65553;BME280;52465;51.560;14.368;2023-02-01T02:46:24;99884.84;;;6.62;67.58
65553;BME280;52465;51.560;14.368;2023-02-01T02:49:18;99879.22;;;6.67;67.44
65553;BME280;52465;51.560;14.368;2023-02-01T02:51:58;99857.09;;;6.53;67.81
65553;BME280;52465;51.560;14.368;2023-02-01T02:54:46;99874.16;;;6.66;67.55
65553;BME280;52465;51.560;14.368;2023-02-01T02:57:33;99876.75;;;6.66;67.14
65553;BME280;52465;51.560;14.368;2023-02-01T03:00:22;99836.72;;;6.39;67.41
65553;BME280;52465;51.560;14.368;2023-02-01T03:03:08;99875.78;;;6.67;66.89
65553;BME280;52465;51.560;14.368;2023-02-01T03:05:53;99867.59;;;6.61;67.38
65553;BME280;52465;51.560;14.368;2023-02-01T03:08:21;99867.06;;;6.58;67.59
65553;BME280;52465;51.560;14.368;2023-02-01T03:16:08;99877.72;;;6.65;67.22
65553;BME280;52465;51.560;14.368;2023-02-01T03:18:47;99882.94;;;6.65;67.44
65553;BME280;52465;51.560;14.368;2023-02-01T03:21:22;99883.59;;;6.67;66.72
65553;BME280;52465;51.560;14.368;2023-02-01T03:24:01;99874.88;;;6.58;66.98
65553;BME280;52465;51.560;14.368;2023-02-01T03:26:30;99888.94;;;6.65;67.05
65553;BME280;52465;51.560;14.368;2023-02-01T03:29:03;99898.38;;;6.66;67.37
65553;BME280;52465;51.560;14.368;2023-02-01T03:31:31;99880.75;;;6.60;67.40
65553;BME280;52465;51.560;14.368;2023-02-01T03:33:57;99879.66;;;6.62;67.19
65553;BME280;52465;51.560;14.368;2023-02-01T03:36:31;99883.91;;;6.63;67.40
65553;BME280;52465;51.560;14.368;2023-02-01T03:41:39;99880.19;;;6.66;67.19
65553;BME280;52465;51.560;14.368;2023-02-01T03:44:13;99877.56;;;6.66;67.11
65553;BME280;52465;51.560;14.368;2023-02-01T03:46:46;99853.13;;;6.49;66.81
65553;BME280;52465;51.560;14.368;2023-02-01T03:49:18;99834.25;;;6.47;67.26
65553;BME280;52465;51.560;14.368;2023-02-01T03:51:49;99863.75;;;6.66;67.27
65553;BME280;52465;51.560;14.368;2023-02-01T03:54:17;99855.16;;;6.55;67.23
65553;BME280;52465;51.560;14.368;2023-02-01T03:56:45;99831.91;;;6.44;67.01
65553;BME280;52465;51.560;14.368;2023-02-01T03:59:12;99838.47;;;6.48;67.48
65553;BME280;52465;51.560;14.368;2023-02-01T04:01:41;99861.16;;;6.66;66.99
65553;BME280;52465;51.560;14.368;2023-02-01T04:04:07;99873.88;;;6.69;67.28
65553;BME280;52465;51.560;14.368;2023-02-01T04:06:32;99833.69;;;6.53;67.31
65553;BME280;52465;51.560;14.368;2023-02-01T04:08:58;99850.50;;;6.59;67.26
65553;BME280;52465;51.560;14.368;2023-02-01T04:11:24;99819.88;;;6.43;67.18
65553;BME280;52465;51.560;14.368;2023-02-01T04:13:52;99837.34;;;6.60;67.59
65553;BME280;52465;51.560;14.368;2023-02-01T04:16:18;99853.75;;;6.71;67.54
65553;BME280;52465;51.560;14.368;2023-02-01T04:18:44;99806.59;;;6.46;67.54
65553;BME280;52465;51.560;14.368;2023-02-01T04:21:10;99821.34;;;6.55;67.05
65553;BME280;52465;51.560;14.368;2023-02-01T04:23:36;99843.75;;;6.66;67.54
65553;BME280;52465;51.560;14.368;2023-02-01T04:26:03;99836.38;;;6.61;67.24
65553;BME280;52465;51.560;14.368;2023-02-01T04:28:30;99819.84;;;6.62;67.67
65553;BME280;52465;51.560;14.368;2023-02-01T04:30:58;99823.66;;;6.58;67.42
65553;BME280;52465;51.560;14.368;2023-02-01T04:33:24;99834.16;;;6.67;67.53
65553;BME280;52465;51.560;14.368;2023-02-01T04:35:49;99828.72;;;6.60;67.15
65553;BME280;52465;51.560;14.368;2023-02-01T04:38:15;99845.53;;;6.66;67.62
65553;BME280;52465;51.560;14.368;2023-02-01T04:40:40;99837.06;;;6.63;67.45
65553;BME280;52465;51.560;14.368;2023-02-01T04:43:05;99834.06;;;6.58;67.33
65553;BME280;52465;51.560;14.368;2023-02-01T04:45:31;99834.16;;;6.67;67.85
65553;BME280;52465;51.560;14.368;2023-02-01T04:47:57;99820.78;;;6.61;67.16
65553;BME280;52465;51.560;14.368;2023-02-01T04:50:23;99817.66;;;6.58;67.47
65553;BME280;52465;51.560;14.368;2023-02-01T04:52:51;99827.34;;;6.66;67.14
65553;BME280;52465;51.560;14.368;2023-02-01T04:55:17;99829.78;;;6.67;67.78
65553;BME280;52465;51.560;14.368;2023-02-01T04:57:42;99800.13;;;6.50;67.40
65553;BME280;52465;51.560;14.368;2023-02-01T05:00:09;99807.09;;;6.59;67.88
65553;BME280;52465;51.560;14.368;2023-02-01T05:02:35;99820.19;;;6.68;67.91
65553;BME280;52465;51.560;14.368;2023-02-01T05:05:01;99795.72;;;6.60;67.60
65553;BME280;52465;51.560;14.368;2023-02-01T05:07:27;99807.38;;;6.56;67.37
65553;BME280;52465;51.560;14.368;2023-02-01T05:09:52;99807.66;;;6.63;67.61
65553;BME280;52465;51.560;14.368;2023-02-01T05:12:18;99802.16;;;6.66;67.63
65553;BME280;52465;51.560;14.368;2023-02-01T05:15:03;99792.63;;;6.57;67.45
65553;BME280;52465;51.560;14.368;2023-02-01T05:17:31;99798.72;;;6.66;67.11
65553;BME280;52465;51.560;14.368;2023-02-01T05:19:57;99786.72;;;6.55;67.62
65553;BME280;52465;51.560;14.368;2023-02-01T05:22:22;99804.09;;;6.64;67.22
65553;BME280;52465;51.560;14.368;2023-02-01T05:24:51;99792.47;;;6.58;67.20
65553;BME280;52465;51.560;14.368;2023-02-01T05:27:16;99804.75;;;6.66;66.96
65553;BME280;52465;51.560;14.368;2023-02-01T05:29:42;99791.34;;;6.61;67.12
65553;BME280;52465;51.560;14.368;2023-02-01T05:32:09;99792.84;;;6.63;67.41
65553;BME280;52465;51.560;14.368;2023-02-01T05:34:35;99763.06;;;6.48;67.53
65553;BME280;52465;51.560;14.368;2023-02-01T05:37:00;99802.97;;;6.67;67.53
65553;BME280;52465;51.560;14.368;2023-02-01T05:39:26;99804.75;;;6.66;67.27
65553;BME280;52465;51.560;14.368;2023-02-01T05:41:51;99802.00;;;6.68;67.06
65553;BME280;52465;51.560;14.368;2023-02-01T05:44:16;99781.38;;;6.56;67.27
65553;BME280;52465;51.560;14.368;2023-02-01T05:46:45;99765.66;;;6.48;67.12
65553;BME280;52465;51.560;14.368;2023-02-01T05:49:11;99800.50;;;6.65;67.25
65553;BME280;52465;51.560;14.368;2023-02-01T05:51:36;99787.66;;;6.63;67.38
65553;BME280;52465;51.560;14.368;2023-02-01T05:54:02;99763.63;;;6.52;67.41
65553;BME280;52465;51.560;14.368;2023-02-01T05:56:27;99774.53;;;6.55;67.26
65553;BME280;52465;51.560;14.368;2023-02-01T05:58:55;99788.31;;;6.66;67.18
65553;BME280;52465;51.560;14.368;2023-02-01T06:01:21;99794.50;;;6.65;67.26
65553;BME280;52465;51.560;14.368;2023-02-01T06:03:46;99789.97;;;6.67;67.10
65553;BME280;52465;51.560;14.368;2023-02-01T06:06:12;99751.22;;;6.36;67.11
65553;BME280;52465;51.560;14.368;2023-02-01T06:08:37;99787.50;;;6.65;67.54
65553;BME280;52465;51.560;14.368;2023-02-01T06:11:08;99784.34;;;6.61;67.16
65553;BME280;52465;51.560;14.368;2023-02-01T06:13:33;99778.66;;;6.58;67.33
65553;BME280;52465;51.560;14.368;2023-02-01T06:15:59;99788.63;;;6.62;67.31
65553;BME280;52465;51.560;14.368;2023-02-01T06:18:25;99781.63;;;6.63;67.61
65553;BME280;52465;51.560;14.368;2023-02-01T06:20:54;99785.72;;;6.66;67.44
65553;BME280;52465;51.560;14.368;2023-02-01T06:23:20;99776.94;;;6.67;67.21
65553;BME280;52465;51.560;14.368;2023-02-01T06:25:50;99774.09;;;6.60;67.65
65553;BME280;52465;51.560;14.368;2023-02-01T06:28:16;99771.34;;;6.61;66.90
65553;BME280;52465;51.560;14.368;2023-02-01T06:30:44;99782.16;;;6.67;67.43
65553;BME280;52465;51.560;14.368;2023-02-01T06:33:12;99787.50;;;6.65;67.47
65553;BME280;52465;51.560;14.368;2023-02-01T06:35:40;99784.09;;;6.65;67.42
65553;BME280;52465;51.560;14.368;2023-02-01T06:38:11;99788.47;;;6.64;66.91
65553;BME280;52465;51.560;14.368;2023-02-01T06:40:37;99721.28;;;6.22;67.36
65553;BME280;52465;51.560;14.368;2023-02-01T06:43:03;99791.59;;;6.68;66.79
65553;BME280;52465;51.560;14.368;2023-02-01T06:45:28;99788.47;;;6.64;67.21
65553;BME280;52465;51.560;14.368;2023-02-01T06:47:53;99772.88;;;6.64;67.76
65553;BME280;52465;51.560;14.368;2023-02-01T06:50:19;99760.88;;;6.53;67.35
65553;BME280;52465;51.560;14.368;2023-02-01T06:52:45;99758.97;;;6.46;67.34
65553;BME280;52465;51.560;14.368;2023-02-01T06:55:11;99769.44;;;6.63;67.58
65553;BME280;52465;51.560;14.368;2023-02-01T06:57:37;99756.63;;;6.52;67.60
65553;BME280;52465;51.560;14.368;2023-02-01T07:00:04;99781.88;;;6.70;67.37
65553;BME280;52465;51.560;14.368;2023-02-01T07:02:30;99779.56;;;6.67;67.54
65553;BME280;52465;51.560;14.368;2023-02-01T07:04:56;99774.09;;;6.60;66.95
65553;BME280;52465;51.560;14.368;2023-02-01T07:07:21;99772.56;;;6.67;67.21
65553;BME280;52465;51.560;14.368;2023-02-01T07:09:49;99781.19;;;6.68;67.44
65553;BME280;52465;51.560;14.368;2023-02-01T07:12:15;99764.25;;;6.63;67.54
65553;BME280;52465;51.560;14.368;2023-02-01T07:14:40;99754.81;;;6.62;67.58
65553;BME280;52465;51.560;14.368;2023-02-01T07:17:06;99764.63;;;6.69;67.24
65553;BME280;52465;51.560;14.368;2023-02-01T07:19:31;99771.63;;;6.68;67.41
65553;BME280;52465;51.560;14.368;2023-02-01T07:21:56;99746.81;;;6.46;67.83
65553;BME280;52465;51.560;14.368;2023-02-01T07:24:22;99742.81;;;6.52;67.23
65553;BME280;52465;51.560;14.368;2023-02-01T07:26:47;99762.97;;;6.68;67.32
65553;BME280;52465;51.560;14.368;2023-02-01T07:29:14;99745.09;;;6.55;67.61
65553;BME280;52465;51.560;14.368;2023-02-01T07:31:39;99746.47;;;6.59;67.36
65553;BME280;52465;51.560;14.368;2023-02-01T07:34:04;99712.88;;;6.38;67.69
65553;BME280;52465;51.560;14.368;2023-02-01T07:36:30;99762.84;;;6.69;67.26
65553;BME280;52465;51.560;14.368;2023-02-01T07:38:57;99748.66;;;6.63;67.12
65553;BME280;52465;51.560;14.368;2023-02-01T07:41:23;99729.25;;;6.48;67.48
65553;BME280;52465;51.560;14.368;2023-02-01T07:43:55;99739.25;;;6.53;67.11
65553;BME280;52465;51.560;14.368;2023-02-01T07:46:20;99716.84;;;6.42;67.17
65553;BME280;52465;51.560;14.368;2023-02-01T07:48:46;99746.63;;;6.57;67.74
65553;BME280;52465;51.560;14.368;2023-02-01T07:51:15;99737.31;;;6.55;67.57
65553;BME280;52465;51.560;14.368;2023-02-01T07:53:41;99738.44;;;6.52;67.78
65553;BME280;52465;51.560;14.368;2023-02-01T07:56:14;99755.88;;;6.70;67.29
65553;BME280;52465;51.560;14.368;2023-02-01T07:58:41;99701.50;;;6.39;67.82
65553;BME280;52465;51.560;14.368;2023-02-01T08:01:14;99748.22;;;6.68;67.41
65553;BME280;52465;51.560;14.368;2023-02-01T08:03:52;99741.50;;;6.66;67.54
65553;BME280;52465;51.560;14.368;2023-02-01T08:06:19;99687.19;;;6.35;67.28
65553;BME280;52465;51.560;14.368;2023-02-01T08:08:46;99716.75;;;6.61;67.58
65553;BME280;52465;51.560;14.368;2023-02-01T08:11:12;99704.06;;;6.49;67.63
65553;BME280;52465;51.560;14.368;2023-02-01T08:13:43;99730.53;;;6.72;67.11
65553;BME280;52465;51.560;14.368;2023-02-01T08:16:11;99689.44;;;6.48;67.48
65553;BME280;52465;51.560;14.368;2023-02-01T08:18:38;99727.53;;;6.67;67.47
65553;BME280;52465;51.560;14.368;2023-02-01T08:21:11;99717.81;;;6.69;67.22
65553;BME280;52465;51.560;14.368;2023-02-01T08:23:38;99713.56;;;6.68;67.04
65553;BME280;52465;51.560;14.368;2023-02-01T08:28:33;99709.06;;;6.70;67.51
65553;BME280;52465;51.560;14.368;2023-02-01T08:30:59;99687.31;;;6.61;67.30
65553;BME280;52465;51.560;14.368;2023-02-01T08:33:28;99689.06;;;6.70;67.40
65553;BME280;52465;51.560;14.368;2023-02-01T08:35:54;99667.41;;;6.52;67.44
65553;BME280;52465;51.560;14.368;2023-02-01T08:38:21;99680.06;;;6.65;67.54
65553;BME280;52465;51.560;14.368;2023-02-01T08:40:49;99695.06;;;6.71;67.16
65553;BME280;52465;51.560;14.368;2023-02-01T08:43:14;99680.31;;;6.61;67.60
65553;BME280;52465;51.560;14.368;2023-02-01T08:45:40;99686.59;;;6.69;67.15
65553;BME280;52465;51.560;14.368;2023-02-01T08:48:06;99683.19;;;6.68;67.41
65553;BME280;52465;51.560;14.368;2023-02-01T08:50:31;99691.00;;;6.68;66.97
65553;BME280;52465;51.560;14.368;2023-02-01T08:52:57;99686.31;;;6.72;66.82
65553;BME280;52465;51.560;14.368;2023-02-01T08:55:22;99678.50;;;6.72;67.40
65553;BME280;52465;51.560;14.368;2023-02-01T08:57:48;99677.69;;;6.71;67.36
65553;BME280;52465;51.560;14.368;2023-02-01T09:00:15;99676.72;;;6.72;67.29
65553;BME280;52465;51.560;14.368;2023-02-01T09:02:41;99671.00;;;6.69;67.75
65553;BME280;52465;51.560;14.368;2023-02-01T09:05:07;99665.66;;;6.70;67.34
65553;BME280;52465;51.560;14.368;2023-02-01T09:07:33;99618.03;;;6.42;67.45
65553;BME280;52465;51.560;14.368;2023-02-01T09:09:59;99663.59;;;6.74;67.29
65553;BME280;52465;51.560;14.368;2023-02-01T09:12:31;99654.00;;;6.74;67.53
65553;BME280;52465;51.560;14.368;2023-02-01T09:14:57;99647.97;;;6.74;67.51
65553;BME280;52465;51.560;14.368;2023-02-01T09:17:28;99648.41;;;6.69;67.94
65553;BME280;52465;51.560;14.368;2023-02-01T09:19:53;99627.13;;;6.56;67.40
65553;BME280;52465;51.560;14.368;2023-02-01T09:22:21;99631.38;;;6.57;67.67
65553;BME280;52465;51.560;14.368;2023-02-01T09:24:47;99629.81;;;6.64;67.49
65553;BME280;52465;51.560;14.368;2023-02-01T09:27:12;99640.44;;;6.71;67.75
65553;BME280;52465;51.560;14.368;2023-02-01T09:29:38;99647.59;;;6.69;67.37
65553;BME280;52465;51.560;14.368;2023-02-01T09:32:04;99653.44;;;6.71;66.92
65553;BME280;52465;51.560;14.368;2023-02-01T09:34:30;99664.41;;;6.74;66.82
65553;BME280;52465;51.560;14.368;2023-02-01T09:36:56;99631.38;;;6.57;67.66
65553;BME280;52465;51.560;14.368;2023-02-01T09:39:24;99657.53;;;6.73;67.10
65553;BME280;52465;51.560;14.368;2023-02-01T09:47:02;99668.09;;;6.72;66.91
65553;BME280;52465;51.560;14.368;2023-02-01T09:49:48;99668.41;;;6.69;67.32
65553;BME280;52465;51.560;14.368;2023-02-01T09:52:17;99671.38;;;6.74;67.73
65553;BME280;52465;51.560;14.368;2023-02-01T09:54:56;99673.13;;;6.73;67.16
65553;BME280;52465;51.560;14.368;2023-02-01T09:57:27;99673.13;;;6.73;66.93
65553;BME280;52465;51.560;14.368;2023-02-01T10:00:00;99661.84;;;6.65;67.32
65553;BME280;52465;51.560;14.368;2023-02-01T10:02:55;99679.03;;;6.75;67.05
65553;BME280;52465;51.560;14.368;2023-02-01T10:05:43;99673.28;;;6.72;67.44
65553;BME280;52465;51.560;14.368;2023-02-01T10:08:26;99675.75;;;6.73;67.35
65553;BME280;52465;51.560;14.368;2023-02-01T10:11:07;99662.00;;;6.63;67.01
65553;BME280;52465;51.560;14.368;2023-02-01T10:14:21;99680.94;;;6.73;67.50
65553;BME280;52465;51.560;14.368;2023-02-01T10:26:04;99689.88;;;6.71;67.76
65553;BME280;52465;51.560;14.368;2023-02-01T10:28:59;99700.94;;;6.73;67.34
65553;BME280;52465;51.560;14.368;2023-02-01T10:31:29;99683.50;;;6.55;67.52
65553;BME280;52465;51.560;14.368;2023-02-01T10:33:58;99694.69;;;6.66;67.36
65553;BME280;52465;51.560;14.368;2023-02-01T10:36:41;99687.19;;;6.62;67.86
65553;BME280;52465;51.560;14.368;2023-02-01T10:39:11;99698.22;;;6.74;67.37
65553;BME280;52465;51.560;14.368;2023-02-01T10:41:39;99706.97;;;6.73;66.97
65553;BME280;52465;51.560;14.368;2023-02-01T10:44:11;99668.22;;;6.52;67.80
65553;BME280;52465;51.560;14.368;2023-02-01T10:46:42;99706.59;;;6.68;67.46
65553;BME280;52465;51.560;14.368;2023-02-01T10:49:26;99722.28;;;6.76;67.64
65553;BME280;52465;51.560;14.368;2023-02-01T10:52:02;99712.75;;;6.67;67.87
65553;BME280;52465;51.560;14.368;2023-02-01T10:54:35;99725.47;;;6.70;67.48
65553;BME280;52465;51.560;14.368;2023-02-01T10:57:10;99730.09;;;6.76;67.66
65553;BME280;52465;51.560;14.368;2023-02-01T10:59:36;99715.72;;;6.72;67.55
65553;BME280;52465;51.560;14.368;2023-02-01T11:02:14;99709.75;;;6.62;67.61
65553;BME280;52465;51.560;14.368;2023-02-01T11:05:05;99745.69;;;6.76;67.16
65553;BME280;52465;51.560;14.368;2023-02-01T11:07:34;99730.53;;;6.72;67.32
65553;BME280;52465;51.560;14.368;2023-02-01T11:10:00;99736.41;;;6.74;67.58
65553;BME280;52465;51.560;14.368;2023-02-01T11:12:31;99738.72;;;6.77;67.41
65553;BME280;52465;51.560;14.368;2023-02-01T11:17:40;99733.50;;;6.77;67.47
65553;BME280;52465;51.560;14.368;2023-02-01T11:20:17;99733.69;;;6.66;67.31
65553;BME280;52465;51.560;14.368;2023-02-01T11:22:56;99731.88;;;6.76;67.49
65553;BME280;52465;51.560;14.368;2023-02-01T11:25:23;99704.19;;;6.57;67.18
65553;BME280;52465;51.560;14.368;2023-02-01T11:27:50;99713.72;;;6.66;67.44
65553;BME280;52465;51.560;14.368;2023-02-01T11:30:18;99717.50;;;6.72;67.65
65553;BME280;52465;51.560;14.368;2023-02-01T11:32:47;99614.16;;;6.01;67.73
65553;BME280;52465;51.560;14.368;2023-02-01T11:35:19;99684.78;;;6.51;67.17
65553;BME280;52465;51.560;14.368;2023-02-01T11:37:52;99718.88;;;6.76;67.42
65553;BME280;52465;51.560;14.368;2023-02-01T11:43:00;99740.34;;;6.78;67.74
65553;BME280;52465;51.560;14.368;2023-02-01T11:45:27;99735.97;;;6.78;67.06
65553;BME280;52465;51.560;14.368;2023-02-01T11:47:56;99730.91;;;6.77;67.82
65553;BME280;52465;51.560;14.368;2023-02-01T11:51:04;99732.53;;;6.78;67.18
65553;BME280;52465;51.560;14.368;2023-02-01T11:54:08;99735.84;;;6.80;67.66
65553;BME280;52465;51.560;14.368;2023-02-01T11:57:08;99734.16;;;6.79;67.59
65553;BME280;52465;51.560;14.368;2023-02-01T12:05:10;99728.97;;;6.79;67.36
65553;BME280;52465;51.560;14.368;2023-02-01T12:07:55;99728.03;;;6.80;67.49
65553;BME280;52465;51.560;14.368;2023-02-01T12:10:38;99726.25;;;6.80;67.35
65553;BME280;52465;51.560;14.368;2023-02-01T12:15:57;99714.06;;;6.81;67.67
65553;BME280;52465;51.560;14.368;2023-02-01T12:21:25;99697.84;;;6.69;67.41
65553;BME280;52465;51.560;14.368;2023-02-01T12:27:01;99710.63;;;6.80;67.27
65553;BME280;52465;51.560;14.368;2023-02-01T12:32:15;99696.72;;;6.72;67.44
65553;BME280;52465;51.560;14.368;2023-02-01T12:37:55;99710.47;;;6.82;67.34
65553;BME280;52465;51.560;14.368;2023-02-01T12:43:23;99709.66;;;6.81;67.78
65553;BME280;52465;51.560;14.368;2023-02-01T12:45:58;99678.31;;;6.55;67.41
65553;BME280;52465;51.560;14.368;2023-02-01T12:48:53;99709.34;;;6.84;66.93
65553;BME280;52465;51.560;14.368;2023-02-01T12:51:27;99699.25;;;6.81;67.54
65553;BME280;52465;51.560;14.368;2023-02-01T12:54:03;99692.28;;;6.82;67.01
65553;BME280;52465;51.560;14.368;2023-02-01T12:56:59;99704.16;;;6.84;67.32
65553;BME280;52465;51.560;14.368;2023-02-01T12:59:33;99697.47;;;6.82;67.08
65553;BME280;52465;51.560;14.368;2023-02-01T13:02:19;99698.94;;;6.84;67.37
65553;BME280;52465;51.560;14.368;2023-02-01T13:05:01;99702.41;;;6.85;67.15
65553;BME280;52465;51.560;14.368;2023-02-01T13:07:39;99694.59;;;6.85;67.58
65553;BME280;52465;51.560;14.368;2023-02-01T13:12:38;99699.41;;;6.80;67.46
65553;BME280;52465;51.560;14.368;2023-02-01T13:15:17;99697.19;;;6.85;67.15
65553;BME280;52465;51.560;14.368;2023-02-01T13:17:44;99692.81;;;6.85;67.11
65553;BME280;52465;51.560;14.368;2023-02-01T13:20:24;99695.41;;;6.85;67.58
65553;BME280;52465;51.560;14.368;2023-02-01T13:22:58;99680.00;;;6.74;67.63
65553;BME280;52465;51.560;14.368;2023-02-01T13:25:39;99669.44;;;6.76;67.35
65553;BME280;52465;51.560;14.368;2023-02-01T13:28:21;99693.81;;;6.75;67.32
65553;BME280;52465;51.560;14.368;2023-02-01T13:36:56;99675.19;;;6.79;67.08
65553;BME280;52465;51.560;14.368;2023-02-01T13:42:15;99647.44;;;6.70;67.75
65553;BME280;52465;51.560;14.368;2023-02-01T13:44:47;99630.25;;;6.59;67.25
65553;BME280;52465;51.560;14.368;2023-02-01T13:47:29;99670.22;;;6.86;67.09
65553;BME280;52465;51.560;14.368;2023-02-01T13:49:56;99672.00;;;6.85;67.48
65553;BME280;52465;51.560;14.368;2023-02-01T13:52:32;99664.03;;;6.87;67.37
65553;BME280;52465;51.560;14.368;2023-02-01T13:55:22;99659.81;;;6.86;67.74
65553;BME280;52465;51.560;14.368;2023-02-01T13:58:03;99658.44;;;6.82;66.90
65553;BME280;52465;51.560;14.368;2023-02-01T14:00:37;99633.56;;;6.79;66.93
65553;BME280;52465;51.560;14.368;2023-02-01T14:03:12;99635.84;;;6.82;67.87
65553;BME280;52465;51.560;14.368;2023-02-01T14:10:54;99655.41;;;6.86;67.40
65553;BME280;52465;51.560;14.368;2023-02-01T14:13:26;99648.03;;;6.82;67.51
65553;BME280;52465;51.560;14.368;2023-02-01T14:23:40;99631.19;;;6.86;67.73
65553;BME280;52465;51.560;14.368;2023-02-01T14:26:08;99640.47;;;6.88;67.61
65553;BME280;52465;51.560;14.368;2023-02-01T14:28:38;99628.88;;;6.83;67.29
65553;BME280;52465;51.560;14.368;2023-02-01T14:31:17;99630.22;;;6.87;67.83
65553;BME280;52465;51.560;14.368;2023-02-01T14:33:45;99612.97;;;6.86;67.10
65553;BME280;52465;51.560;14.368;2023-02-01T14:36:13;99618.16;;;6.86;67.57
65553;BME280;52465;51.560;14.368;2023-02-01T14:38:47;99610.88;;;6.89;68.04
65553;BME280;52465;51.560;14.368;2023-02-01T14:41:40;99601.38;;;6.80;67.57
65553;BME280;52465;51.560;14.368;2023-02-01T14:47:06;99610.06;;;6.89;67.42
65553;BME280;52465;51.560;14.368;2023-02-01T14:49:35;99578.19;;;6.69;67.26
65553;BME280;52465;51.560;14.368;2023-02-01T14:52:06;99594.06;;;6.84;67.59
65553;BME280;52465;51.560;14.368;2023-02-01T14:54:36;99596.66;;;6.84;67.62
65553;BME280;52465;51.560;14.368;2023-02-01T14:57:03;99604.72;;;6.91;67.75
65553;BME280;52465;51.560;14.368;2023-02-01T14:59:30;99598.69;;;6.90;67.70